Time;durP1;ratioP1;P1;durP2;ratioP2;P2;SDS_P1;SDS_P2;PMS_P1;PMS_P2;Temp;Humidity;BMP_temperature;BMP_pressure;BME280_temperature;BME280_humidity;BME280_pressure;Samples;Min_cycle;Max_cycle;Signal;HPM_P1;HPM_P2
2023/11/17 00:01:28;;;;;;;5.18;3.22;;;;;;;;;;4971611;28;20033;-51
2023/11/17 00:03:54;;;;;;;5.80;3.80;;;;;;;;;;4971382;28;20043;-52
2023/11/17 00:06:21;;;;;;;5.18;3.30;;;;;;;;;;4962078;28;20027;-52
2023/11/17 00:08:47;;;;;;;5.15;3.33;;;;;;;;;;4971842;28;20031;-52
2023/11/17 00:11:13;;;;;;;4.95;3.72;;;;;;;;;;4965471;28;20105;-51
2023/11/17 00:13:40;;;;;;;6.20;3.20;;;;;;;;;;4961973;28;20089;-52
2023/11/17 00:16:07;;;;;;;5.90;2.80;;;;;;;;;;4971374;28;20031;-52
2023/11/17 00:18:35;;;;;;;6.28;4.20;;;11.40;99.90;;;;;;4971629;28;20069;-52
2023/11/17 00:21:03;;;;;;;4.95;3.83;;;11.50;99.90;;;;;;4962743;28;20069;-52
2023/11/17 00:23:29;;;;;;;5.35;3.53;;;11.50;99.90;;;;;;4970142;28;20110;-51
2023/11/17 00:25:55;;;;;;;5.85;4.32;;;11.50;99.90;;;;;;4971283;28;20429;-52
2023/11/17 00:28:24;;;;;;;4.28;3.05;;;11.40;99.90;;;;;;4949344;28;20035;-52
2023/11/17 00:30:50;;;;;;;4.55;2.95;;;11.20;99.90;;;;;;4962774;28;20031;-52
2023/11/17 00:33:17;;;;;;;5.35;3.15;;;11.10;99.90;;;;;;4971174;28;20462;-52
2023/11/17 00:35:46;;;;;;;5.10;3.42;;;11.10;99.90;;;;;;4971222;28;20027;-51
2023/11/17 00:38:13;;;;;;;6.03;3.22;;;11.20;99.90;;;;;;4970947;28;20034;-52
2023/11/17 00:40:39;;;;;;;4.47;3.28;;;;;;;;;;4936999;28;20043;-52
2023/11/17 00:43:05;;;;;;;6.82;3.78;;;;;;;;;;4971163;28;20023;-52
2023/11/17 00:45:34;;;;;;;5.78;3.78;;;;;;;;;;4971811;28;20034;-52
2023/11/17 00:48:00;;;;;;;5.60;4.00;;;;;;;;;;4969936;28;20085;-51
2023/11/17 00:50:29;;;;;;;5.50;3.05;;;;;;;;;;4970517;28;20023;-52
2023/11/17 00:52:55;;;;;;;6.35;3.20;;;;;;;;;;4971543;28;20767;-51
2023/11/17 00:55:22;;;;;;;5.90;3.72;;;;;;;;;;4971465;28;20482;-52
2023/11/17 00:57:48;;;;;;;5.10;3.35;;;;;;;;;;4971540;28;20026;-51
2023/11/17 01:00:14;;;;;;;5.50;3.60;;;;;;;;;;4971428;28;20031;-51
2023/11/17 01:02:41;;;;;;;7.55;3.53;;;;;;;;;;4971834;28;20030;-52
2023/11/17 01:05:07;;;;;;;4.95;3.47;;;;;;;;;;4971402;28;20042;-52
2023/11/17 01:07:34;;;;;;;5.50;3.70;;;;;;;;;;4971376;28;20027;-51
2023/11/17 01:10:00;;;;;;;4.75;3.08;;;;;;;;;;4975115;28;20398;-51
2023/11/17 01:12:26;;;;;;;4.60;3.40;;;;;;;;;;4956739;28;20125;-51
2023/11/17 01:14:52;;;;;;;5.10;3.38;;;;;;;;;;4975117;28;20027;-52
2023/11/17 01:17:19;;;;;;;5.28;3.45;;;;;;;;;;4975296;28;20065;-52
2023/11/17 01:19:46;;;;;;;6.38;3.80;;;;;;;;;;4975411;28;20048;-51
2023/11/17 01:22:12;;;;;;;6.13;3.35;;;;;;;;;;4975001;28;20089;-51
2023/11/17 01:24:39;;;;;;;6.03;3.65;;;;;;;;;;4975026;28;20127;-51
2023/11/17 01:27:05;;;;;;;6.45;3.40;;;;;;;;;;4974957;28;20023;-52
2023/11/17 01:29:34;;;;;;;7.43;3.72;;;;;;;;;;4974784;28;20113;-51
2023/11/17 01:32:00;;;;;;;7.43;3.80;;;;;;;;;;4973133;28;20019;-51
2023/11/17 01:34:27;;;;;;;6.05;3.75;;;;;;;;;;4974839;28;20019;-52
2023/11/17 01:36:54;;;;;;;5.53;3.50;;;;;;;;;;4956521;28;20047;-51
2023/11/17 01:39:20;;;;;;;5.10;3.10;;;;;;;;;;4974567;28;20038;-53
2023/11/17 01:41:47;;;;;;;9.25;4.22;;;;;;;;;;4975165;28;20139;-51
2023/11/17 01:44:13;;;;;;;5.72;3.55;;;;;;;;;;4974522;28;20045;-51
2023/11/17 01:46:39;;;;;;;5.22;3.58;;;;;;;;;;4939790;28;20043;-52
2023/11/17 01:49:06;;;;;;;4.88;3.10;;;;;;;;;;4955500;28;20118;-51
2023/11/17 01:51:32;;;;;;;6.05;3.30;;;;;;;;;;4974325;28;20549;-52
2023/11/17 01:54:00;;;;;;;5.70;3.58;;;;;;;;;;4956395;28;20063;-51
2023/11/17 01:56:29;;;;;;;4.90;3.30;;;12.10;99.90;;;;;;4940063;28;20050;-51
2023/11/17 01:58:55;;;;;;;5.43;3.30;;;12.10;99.90;;;;;;4974544;28;20027;-52
2023/11/17 02:01:21;;;;;;;5.05;3.33;;;11.90;99.90;;;;;;4974620;28;20113;-52
2023/11/17 02:03:47;;;;;;;4.50;2.97;;;12.00;99.90;;;;;;4974300;28;20066;-51
2023/11/17 02:06:21;;;;;;;6.55;3.05;;;11.90;99.90;;;;;;4974177;28;20045;-52
2023/11/17 02:09:29;;;;;;;5.03;3.72;;;11.90;99.90;;;;;;4972660;28;20059;-51
2023/11/17 02:12:23;;;;;;;9.55;4.20;;;12.10;99.90;;;;;;4973788;28;20502;-52
2023/11/17 02:14:52;;;;;;;6.95;3.50;;;12.20;99.90;;;;;;4974225;28;20027;-52
2023/11/17 02:17:25;;;;;;;5.63;3.42;;;;;;;;;;4974084;28;20161;-52
2023/11/17 02:19:52;;;;;;;5.05;3.40;;;;;;;;;;4971961;28;20105;-53
2023/11/17 02:22:21;;;;;;;7.60;3.88;;;;;;;;;;4973307;28;20035;-53
2023/11/17 02:24:54;;;;;;;14.02;6.68;;;;;;;;;;4962206;28;20134;-52
2023/11/17 02:27:46;;;;;;;9.38;3.97;;;12.70;99.90;;;;;;4973200;28;20113;-51
2023/11/17 02:30:19;;;;;;;6.05;3.38;;;;;;;;;;4973614;28;20123;-51
2023/11/17 02:32:46;;;;;;;7.47;3.95;;;;;;;;;;4972115;28;20023;-51
2023/11/17 02:35:15;;;;;;;5.50;3.10;;;;;;;;;;4973849;28;20038;-52
2023/11/17 02:37:41;;;;;;;3.78;2.97;;;;;;;;;;4973771;28;20469;-51
2023/11/17 02:40:18;;;;;;;15.63;7.50;;;;;;;;;;4973635;28;20485;-51
2023/11/17 02:42:48;;;;;;;8.82;5.60;;;13.20;99.90;;;;;;4972249;28;20030;-51
2023/11/17 02:45:19;;;;;;;9.40;5.45;;;13.20;99.90;;;;;;4969388;28;20039;-51
2023/11/17 02:47:48;;;;;;;10.35;5.70;;;13.10;99.90;;;;;;4971891;28;20030;-51
2023/11/17 02:50:18;;;;;;;11.02;5.07;;;13.00;99.90;;;;;;4971508;28;20039;-51
2023/11/17 02:53:00;;;;;;;9.18;5.30;;;13.00;99.90;;;;;;4971692;28;20053;-51
2023/11/17 02:55:28;;;;;;;11.82;6.60;;;13.00;99.90;;;;;;4949407;28;20041;-51
2023/11/17 02:57:55;;;;;;;10.18;4.72;;;;;;;;;;4973575;28;20689;-51
2023/11/17 03:00:23;;;;;;;5.82;3.03;;;;;;;;;;4973489;28;20534;-51
2023/11/17 03:02:50;;;;;;;7.45;3.90;;;11.80;99.90;;;;;;4973199;28;20037;-52
2023/11/17 03:05:16;;;;;;;5.88;3.47;;;11.70;99.90;;;;;;4973216;28;20117;-51
2023/11/17 03:07:45;;;;;;;5.45;3.35;;;11.50;99.90;;;;;;4973310;28;20097;-52
2023/11/17 03:10:12;;;;;;;5.15;3.30;;;;;;;;;;4972995;28;20058;-51
2023/11/17 03:12:38;;;;;;;7.07;3.70;;;;;;;;;;4973126;28;20038;-51
2023/11/17 03:15:04;;;;;;;6.22;3.67;;;;;;;;;;4972958;28;20019;-51
2023/11/17 03:17:30;;;;;;;5.32;3.60;;;;;;;;;;4971688;28;20030;-51
2023/11/17 03:19:56;;;;;;;7.10;4.32;;;;;;;;;;4972677;28;20018;-51
2023/11/17 03:22:22;;;;;;;8.38;4.13;;;;;;;;;;4972731;28;20039;-51
2023/11/17 03:24:49;;;;;;;7.47;4.22;;;;;;;;;;4972793;28;20117;-51
2023/11/17 03:27:15;;;;;;;6.25;3.95;;;;;;;;;;4959478;28;20487;-51
2023/11/17 03:29:46;;;;;;;7.22;4.32;;;;;;;;;;4972294;28;20055;-50
2023/11/17 03:32:12;;;;;;;6.13;4.15;;;11.50;99.90;;;;;;4972742;28;20038;-51
2023/11/17 03:34:40;;;;;;;5.60;3.97;;;11.50;99.90;;;;;;4972669;28;20364;-51
2023/11/17 03:37:06;;;;;;;6.15;3.90;;;11.60;99.90;;;;;;4972824;28;20096;-51
2023/11/17 03:39:41;;;;;;;7.10;4.38;;;11.80;99.90;;;;;;4972668;28;20446;-51
2023/11/17 03:42:09;;;;;;;6.40;3.85;;;;;;;;;;4971794;28;20042;-52
2023/11/17 03:44:36;;;;;;;5.60;3.55;;;;;;;;;;4972487;28;20461;-51
2023/11/17 03:47:02;;;;;;;4.72;3.08;;;;;;;;;;4972596;28;20027;-51
2023/11/17 03:49:28;;;;;;;7.00;3.72;;;;;;;;;;4972374;28;20027;-51
2023/11/17 03:51:55;;;;;;;4.45;3.20;;;11.90;99.90;;;;;;4972301;28;20085;-51
2023/11/17 03:54:23;;;;;;;5.32;3.40;;;11.70;99.90;;;;;;4972489;28;20026;-51
2023/11/17 03:56:50;;;;;;;5.32;3.58;;;;;;;;;;4972774;28;20023;-52
2023/11/17 03:59:16;;;;;;;5.28;3.67;;;;;;;;;;4953591;28;20386;-51
2023/11/17 04:01:46;;;;;;;5.55;3.47;;;;;;;;;;4972133;28;20569;-51
2023/11/17 04:04:17;;;;;;;4.68;3.20;;;;;;;;;;4972299;28;20050;-51
2023/11/17 04:06:43;;;;;;;3.80;2.97;;;11.80;99.90;;;;;;4972338;28;20031;-51
2023/11/17 04:09:12;;;;;;;4.30;3.15;;;11.60;99.90;;;;;;4962572;28;20041;-51
2023/11/17 04:11:39;;;;;;;5.95;3.85;;;11.60;99.90;;;;;;4972062;28;20169;-52
2023/11/17 04:14:07;;;;;;;4.32;2.97;;;11.70;99.90;;;;;;4972280;28;20449;-51
2023/11/17 04:16:33;;;;;;;4.32;3.00;;;;;;;;;;4972109;28;20026;-51
2023/11/17 04:19:00;;;;;;;5.43;3.03;;;10.70;99.90;;;;;;4959722;28;20032;-51
2023/11/17 04:21:26;;;;;;;4.30;2.85;;;10.70;99.90;;;;;;4972350;28;20027;-51
2023/11/17 04:23:52;;;;;;;4.32;3.13;;;;;;;;;;4972099;28;20113;-51
2023/11/17 04:26:19;;;;;;;5.07;3.17;;;;;;;;;;4971785;28;20042;-51
2023/11/17 04:28:47;;;;;;;6.45;2.33;;;;;;;;;;4961685;28;20053;-51
2023/11/17 04:31:13;;;;;;;6.65;3.92;;;;;;;;;;4971983;28;20407;-51
2023/11/17 04:33:39;;;;;;;6.07;3.67;;;;;;;;;;4972030;28;20027;-51
2023/11/17 04:36:05;;;;;;;5.30;3.58;;;10.40;99.90;;;;;;4971654;28;20029;-51
2023/11/17 04:38:32;;;;;;;5.15;3.50;;;;;;;;;;4935841;28;20510;-51
2023/11/17 04:40:58;;;;;;;6.70;3.45;;;;;;;;;;4971554;28;20038;-51
2023/11/17 04:43:24;;;;;;;8.13;3.60;;;;;;;;;;4972481;28;20029;-51
2023/11/17 04:45:50;;;;;;;4.28;2.97;;;;;;;;;;4976010;28;20106;-51
2023/11/17 04:48:16;;;;;;;4.25;2.83;;;;;;;;;;4973812;28;20050;-51
2023/11/17 04:50:43;;;;;;;8.18;4.85;;;;;;;;;;4975263;28;20150;-51
2023/11/17 04:53:09;;;;;;;5.55;3.83;;;10.60;99.90;;;;;;4949166;28;20031;-51
2023/11/17 04:55:35;;;;;;;6.05;3.17;;;10.50;99.90;;;;;;4966697;28;20081;-51
2023/11/17 04:58:01;;;;;;;4.75;3.22;;;10.40;99.90;;;;;;4973715;28;20482;-51
2023/11/17 05:00:27;;;;;;;5.40;3.17;;;10.20;99.90;;;;;;4940780;28;20066;-51
2023/11/17 05:02:54;;;;;;;3.83;2.90;;;9.90;99.90;;;;;;4968513;28;20043;-51
2023/11/17 05:05:20;;;;;;;5.78;3.40;;;9.90;99.90;;;;;;4975663;28;20565;-51
2023/11/17 05:07:47;;;;;;;3.97;2.20;;;10.10;99.90;;;;;;4965417;28;20039;-51
2023/11/17 05:10:19;;;;;;;2.97;1.63;;;10.00;99.90;;;;;;4974566;28;20097;-51
2023/11/17 05:12:46;;;;;;;4.38;2.83;;;9.90;99.90;;;;;;4974958;28;20474;-51
2023/11/17 05:15:13;;;;;;;6.63;3.70;;;9.80;99.90;;;;;;4974883;28;20035;-51
2023/11/17 05:17:47;;;;;;;6.88;4.10;;;;;;;;;;4974645;28;20030;-52
2023/11/17 05:20:14;;;;;;;5.40;2.90;;;;;;;;;;4975237;28;20062;-52
2023/11/17 05:22:40;;;;;;;9.00;4.30;;;;;;;;;;4975371;28;20037;-51
2023/11/17 05:25:07;;;;;;;5.13;3.15;;;10.40;99.90;;;;;;4974489;28;20043;-51
2023/11/17 05:27:36;;;;;;;4.57;3.47;;;10.50;99.90;;;;;;4932076;28;20039;-51
2023/11/17 05:30:04;;;;;;;5.40;3.78;;;10.30;99.90;;;;;;4973950;28;20422;-51
2023/11/17 05:32:31;;;;;;;11.68;4.72;;;10.60;99.90;;;;;;4974507;28;20042;-51
2023/11/17 05:34:56;;;;;;;11.13;6.25;;;10.60;99.90;;;;;;4973999;28;20136;-51
2023/11/17 05:37:23;;;;;;;9.18;6.03;;;10.70;99.90;;;;;;4973608;28;20030;-51
2023/11/17 05:39:49;;;;;;;9.07;5.90;;;10.80;99.90;;;;;;4973079;28;20066;-52
2023/11/17 05:42:15;;;;;;;11.38;5.65;;;10.90;99.90;;;;;;4972164;28;20352;-51
2023/11/17 05:44:42;;;;;;;6.25;3.95;;;10.90;99.90;;;;;;4973671;28;20057;-52
2023/11/17 05:47:08;;;;;;;5.03;3.72;;;10.60;99.90;;;;;;4973190;28;20038;-51
2023/11/17 05:49:41;;;;;;;4.00;2.75;;;10.80;99.90;;;;;;4973885;28;20027;-51
2023/11/17 05:52:10;;;;;;;5.30;3.33;;;10.60;99.90;;;;;;4971976;28;20133;-51
2023/11/17 05:54:46;;;;;;;2.50;1.83;;;;;;;;;;4973302;28;20478;-51
2023/11/17 05:57:12;;;;;;;5.40;3.20;;;;;;;;;;4973520;28;20057;-52
2023/11/17 05:59:38;;;;;;;2.50;1.88;;;;;;;;;;4973858;28;20031;-51
2023/11/17 06:02:05;;;;;;;3.83;2.65;;;9.50;99.90;;;;;;4974082;28;20019;-50
2023/11/17 06:04:32;;;;;;;4.97;2.90;;;9.60;99.90;;;;;;4973339;28;20458;-51
2023/11/17 06:07:02;;;;;;;5.13;3.15;;;9.60;99.90;;;;;;4973880;28;20125;-51
2023/11/17 06:09:28;;;;;;;6.18;3.28;;;9.70;99.90;;;;;;4974308;28;20034;-51
2023/11/17 06:11:56;;;;;;;5.75;3.47;;;9.80;99.90;;;;;;4974534;28;20034;-51
2023/11/17 06:14:30;;;;;;;3.88;3.17;;;9.90;99.90;;;;;;4974243;28;20034;-53
2023/11/17 06:16:57;;;;;;;3.50;1.90;;;9.80;99.90;;;;;;4974195;28;20031;-51
2023/11/17 06:19:23;;;;;;;8.77;4.55;;;9.70;99.90;;;;;;4973970;28;20039;-50
2023/11/17 06:21:49;;;;;;;7.60;4.45;;;9.70;99.90;;;;;;4963777;28;20034;-52
2023/11/17 06:24:16;;;;;;;6.60;4.53;;;9.70;99.90;;;;;;4973520;28;20706;-50
2023/11/17 06:26:45;;;;;;;6.25;3.40;;;9.80;99.90;;;;;;4972878;28;20170;-52
2023/11/17 06:29:24;;;;;;;5.85;3.30;;;9.70;99.90;;;;;;4972866;28;20050;-50
2023/11/17 06:31:51;;;;;;;3.00;2.10;;;9.80;99.90;;;;;;4972273;28;20027;-50
2023/11/17 06:34:18;;;;;;;4.50;2.10;;;9.70;99.90;;;;;;4974160;28;20726;-50
2023/11/17 06:36:45;;;;;;;5.53;3.47;;;9.60;99.90;;;;;;4974047;28;20120;-50
2023/11/17 06:39:16;;;;;;;5.45;3.65;;;9.60;99.90;;;;;;4975321;28;20443;-50
2023/11/17 06:41:48;;;;;;;5.72;3.67;;;9.80;99.90;;;;;;4974688;28;20041;-50
2023/11/17 06:44:15;;;;;;;4.75;3.08;;;9.80;99.90;;;;;;4974975;28;20125;-50
2023/11/17 06:46:41;;;;;;;4.30;2.65;;;9.80;99.90;;;;;;4975014;28;20030;-50
2023/11/17 06:49:12;;;;;;;4.20;2.88;;;9.70;99.90;;;;;;4975131;28;20041;-50
2023/11/17 06:51:51;;;;;;;5.60;4.28;;;9.70;99.90;;;;;;4974769;28;20063;-51
2023/11/17 06:54:18;;;;;;;5.97;4.22;;;;;;;;;;4974827;28;20033;-51
2023/11/17 06:56:45;;;;;;;5.18;3.80;;;;;;;;;;4975247;28;20034;-51
2023/11/17 06:59:11;;;;;;;6.55;4.03;;;;;;;;;;4974633;28;20034;-50
2023/11/17 07:01:38;;;;;;;8.43;6.05;;;10.10;99.90;;;;;;4975040;28;20037;-50
2023/11/17 07:04:06;;;;;;;7.35;3.42;;;10.30;99.90;;;;;;4974752;28;20057;-51
2023/11/17 07:06:35;;;;;;;7.07;3.63;;;;;;;;;;4954734;28;20406;-50
2023/11/17 07:09:01;;;;;;;3.50;2.58;;;10.30;99.90;;;;;;4974428;28;20023;-50
2023/11/17 07:11:29;;;;;;;4.28;3.13;;;9.80;99.90;;;;;;4974404;28;20035;-50
2023/11/17 07:13:55;;;;;;;5.10;3.40;;;9.80;99.90;;;;;;4974210;28;20031;-50
2023/11/17 07:16:24;;;;;;;8.82;6.00;;;9.70;99.90;;;;;;4974352;28;20458;-50
2023/11/17 07:18:50;;;;;;;8.90;6.18;;;9.80;99.90;;;;;;4973373;28;20023;-51
2023/11/17 07:21:15;;;;;;;12.02;6.70;;;10.00;99.90;;;;;;4971684;28;20475;-50
2023/11/17 07:23:44;;;;;;;9.38;7.45;;;10.60;99.90;;;;;;4973509;28;20065;-51
2023/11/17 07:26:17;;;;;;;7.82;5.68;;;10.60;99.90;;;;;;4973633;28;20100;-50
2023/11/17 07:28:47;;;;;;;6.88;4.35;;;10.50;99.90;;;;;;4973232;28;20118;-50
2023/11/17 07:31:17;;;;;;;7.95;4.90;;;10.60;99.90;;;;;;4973845;28;20038;-50
2023/11/17 07:33:44;;;;;;;6.30;4.82;;;10.60;99.90;;;;;;4973944;28;20037;-51
2023/11/17 07:36:15;;;;;;;8.75;6.70;;;10.70;99.90;;;;;;4973909;28;20034;-51
2023/11/17 07:38:42;;;;;;;21.75;18.75;;;10.90;99.90;;;;;;4973805;28;20471;-51
2023/11/17 07:41:10;;;;;;;23.15;16.60;;;11.20;99.90;;;;;;4973516;28;20089;-51
2023/11/17 07:43:36;;;;;;;16.25;13.27;;;11.50;99.90;;;;;;4971695;28;20445;-51
2023/11/17 07:46:02;;;;;;;11.43;9.02;;;11.50;99.90;;;;;;4973865;28;20092;-51
2023/11/17 07:48:31;;;;;;;9.27;4.47;;;11.50;99.90;;;;;;4973753;28;20497;-51
2023/11/17 07:50:58;;;;;;;69.15;47.03;;;11.40;99.90;;;;;;4973672;28;20054;-51
2023/11/17 07:53:24;;;;;;;7.40;6.20;;;11.10;99.90;;;;;;4973688;28;20034;-51
2023/11/17 07:55:52;;;;;;;8.68;6.50;;;10.80;99.90;;;;;;4973794;28;20019;-51
2023/11/17 07:58:20;;;;;;;6.97;4.75;;;;;;;;;;4955536;28;20135;-51
2023/11/17 08:00:54;;;;;;;6.78;4.22;;;10.70;99.90;;;;;;4973471;28;20031;-51
2023/11/17 08:03:21;;;;;;;4.63;3.13;;;10.60;99.90;;;;;;4973981;28;20035;-51
2023/11/17 08:05:47;;;;;;;7.72;5.60;;;10.60;99.90;;;;;;4923660;28;20097;-51
2023/11/17 08:08:14;;;;;;;7.25;5.50;;;10.80;99.90;;;;;;4955230;28;20039;-51
2023/11/17 08:10:40;;;;;;;7.20;5.32;;;10.90;99.90;;;;;;4973570;28;20106;-50
2023/11/17 08:13:07;;;;;;;13.23;6.53;;;11.10;99.90;;;;;;4973471;28;20037;-50
2023/11/17 08:15:34;;;;;;;6.47;4.95;;;11.30;99.90;;;;;;4973372;28;20109;-51
2023/11/17 08:18:01;;;;;;;5.15;3.95;;;11.20;99.90;;;;;;4972441;28;20031;-51
2023/11/17 08:20:31;;;;;;;6.35;3.90;;;;;;;;;;4971604;28;20026;-50
2023/11/17 08:23:01;;;;;;;6.47;4.00;;;10.80;99.90;;;;;;4973088;28;20109;-51
2023/11/17 08:25:27;;;;;;;6.00;3.90;;;10.80;99.90;;;;;;4973650;28;20121;-51
2023/11/17 08:27:53;;;;;;;4.95;4.03;;;10.80;99.90;;;;;;4973490;28;20520;-51
2023/11/17 08:30:19;;;;;;;7.20;4.18;;;11.00;99.90;;;;;;4972403;28;20030;-51
2023/11/17 08:32:45;;;;;;;6.40;4.68;;;10.80;99.90;;;;;;4973026;28;20110;-52
2023/11/17 08:35:11;;;;;;;6.72;5.05;;;10.70;99.90;;;;;;4970962;28;20038;-51
2023/11/17 08:37:37;;;;;;;5.50;4.35;;;10.70;99.90;;;;;;4973471;28;20027;-51
2023/11/17 08:40:09;;;;;;;6.45;4.25;;;11.00;99.90;;;;;;4972924;28;20434;-51
2023/11/17 08:42:39;;;;;;;7.10;4.97;;;11.10;99.90;;;;;;4919289;29;20054;-51
2023/11/17 08:45:09;;;;;;;9.05;5.68;;;11.20;99.90;;;;;;4951171;29;20059;-51
2023/11/17 08:47:39;;;;;;;7.57;4.32;;;11.40;99.90;;;;;;4932097;29;20043;-51
2023/11/17 08:50:07;;;;;;;7.90;5.68;;;11.40;99.90;;;;;;4932083;29;20112;-51
2023/11/17 08:52:37;;;;;;;7.40;4.18;;;11.50;99.90;;;;;;4900445;29;20047;-52
2023/11/17 08:55:13;;;;;;;5.78;4.82;;;11.40;99.90;;;;;;4931912;29;20035;-51
2023/11/17 08:57:44;;;;;;;7.43;4.82;;;11.40;99.90;;;;;;4932106;29;20044;-51
2023/11/17 09:00:25;;;;;;;15.40;7.18;;;11.50;99.90;;;;;;4931992;29;20036;-51
2023/11/17 09:02:52;;;;;;;9.68;6.38;;;11.30;99.90;;;;;;4904206;29;20043;-52
2023/11/17 09:05:19;;;;;;;10.82;6.35;;;11.40;99.90;;;;;;4932096;29;20043;-51
2023/11/17 09:07:46;;;;;;;5.68;4.43;;;11.50;99.90;;;;;;4932007;29;20043;-52
2023/11/17 09:10:18;;;;;;;6.90;4.55;;;11.40;99.90;;;;;;4931916;29;20055;-51
2023/11/17 09:12:44;;;;;;;;;;;11.20;99.90;;;;;;4932504;29;20032;-51
2023/11/17 09:15:28;;;;;;;8.20;6.07;;;11.40;99.90;;;;;;4931974;29;19911;-51
2023/11/17 09:17:54;;;;;;;18.92;7.72;;;11.60;99.90;;;;;;4910516;28;20097;-51
2023/11/17 09:20:22;;;;;;;11.43;6.97;;;11.70;99.90;;;;;;4972963;28;20027;-51
2023/11/17 09:22:50;;;;;;;8.52;5.70;;;11.70;99.90;;;;;;4972994;28;20039;-51
2023/11/17 09:25:17;;;;;;;8.32;5.50;;;11.50;99.90;;;;;;4972662;28;20553;-51
2023/11/17 09:27:51;;;;;;;9.63;6.35;;;11.50;99.90;;;;;;4971264;28;20077;-51
2023/11/17 09:30:17;;;;;;;12.90;6.78;;;11.50;99.90;;;;;;4972497;28;20052;-51
2023/11/17 09:32:48;;;;;;;6.72;4.82;;;11.20;99.90;;;;;;4976042;28;20022;-51
2023/11/17 09:35:15;;;;;;;13.05;7.43;;;11.10;99.90;;;;;;4976128;28;20438;-51
2023/11/17 09:37:53;;;;;;;11.85;7.97;;;11.10;99.90;;;;;;4976409;28;20027;-51
2023/11/17 09:40:23;;;;;;;8.93;6.18;;;11.10;99.90;;;;;;4976406;28;20036;-51
2023/11/17 09:42:53;;;;;;;7.15;5.20;;;11.10;99.90;;;;;;4976421;28;20031;-51
2023/11/17 09:45:21;;;;;;;7.40;4.88;;;11.20;99.90;;;;;;4971202;28;20047;-51
2023/11/17 09:47:50;;;;;;;12.15;6.75;;;11.20;99.90;;;;;;4976160;28;20039;-51
2023/11/17 09:50:18;;;;;;;8.68;3.92;;;11.30;99.90;;;;;;4975407;28;20030;-51
2023/11/17 09:52:47;;;;;;;8.30;6.03;;;11.10;99.90;;;;;;4956564;29;20047;-52
2023/11/17 09:55:14;;;;;;;8.18;5.85;;;11.10;99.90;;;;;;4956868;29;20352;-51
2023/11/17 09:57:42;;;;;;;10.48;6.50;;;11.10;99.90;;;;;;4956255;28;20062;-51
2023/11/17 10:00:17;;;;;;;10.63;7.57;;;11.20;99.90;;;;;;4956345;28;20081;-52
2023/11/17 10:02:54;;;;;;;18.75;10.88;;;11.10;99.90;;;;;;4956564;28;20110;-51
2023/11/17 10:05:26;;;;;;;22.65;12.00;;;11.20;99.90;;;;;;4935545;29;20047;-51
2023/11/17 10:08:15;;;;;;;11.57;8.20;;;11.30;99.90;;;;;;4937096;29;20467;-52
2023/11/17 10:10:44;;;;;;;9.35;7.32;;;11.30;99.90;;;;;;4932263;29;20078;-52
2023/11/17 10:13:11;;;;;;;10.13;7.97;;;11.70;99.90;;;;;;4937019;29;20126;-51
2023/11/17 10:15:39;;;;;;;11.27;7.85;;;11.80;99.90;;;;;;4937477;29;20068;-51
2023/11/17 10:18:12;;;;;;;10.90;9.25;;;12.00;99.90;;;;;;4936890;29;20106;-52
2023/11/17 10:20:38;;;;;;;11.10;7.57;;;11.90;99.90;;;;;;4936826;29;20479;-51
2023/11/17 10:23:05;;;;;;;8.88;6.38;;;11.70;99.90;;;;;;4937701;29;20055;-51
2023/11/17 10:25:35;;;;;;;9.88;7.75;;;11.90;99.90;;;;;;4932615;29;20039;-52
2023/11/17 10:28:05;;;;;;;10.15;7.30;;;12.00;99.90;;;;;;4939325;29;20506;-52
2023/11/17 10:30:41;;;;;;;7.95;5.80;;;;;;;;;;4936724;29;20028;-52
2023/11/17 10:33:28;;;;;;;20.02;13.15;;;12.60;99.90;;;;;;4936542;29;20076;-51
2023/11/17 10:36:10;;;;;;;8.57;4.68;;;12.80;99.90;;;;;;4942433;29;20035;-52
2023/11/17 10:38:40;;;;;;;3.80;2.92;;;13.10;99.90;;;;;;4942487;29;20034;-51
2023/11/17 10:41:14;;;;;;;5.40;3.55;;;13.30;99.90;;;;;;4937822;29;20032;-52
2023/11/17 10:43:54;;;;;;;5.82;3.42;;;13.40;99.90;;;;;;4950993;29;20031;-51
2023/11/17 10:46:23;;;;;;;7.45;4.70;;;13.40;99.90;;;;;;4950305;29;20027;-52
2023/11/17 10:48:52;;;;;;;4.70;3.28;;;13.50;99.90;;;;;;4925188;29;20372;-51
2023/11/17 10:51:18;;;;;;;6.63;3.60;;;13.50;99.90;;;;;;4958709;28;20082;-53
2023/11/17 10:54:03;;;;;;;4.78;3.03;;;13.70;99.90;;;;;;4964650;28;20039;-51
2023/11/17 10:56:29;;;;;;;7.07;3.45;;;13.70;99.90;;;;;;4968541;28;20030;-52
2023/11/17 10:58:56;;;;;;;6.25;4.00;;;13.70;99.90;;;;;;4964457;28;20094;-52
2023/11/17 11:01:22;;;;;;;5.07;3.28;;;13.80;99.90;;;;;;4965142;28;20406;-52
2023/11/17 11:03:49;;;;;;;6.05;3.58;;;13.80;99.90;;;;;;4970363;28;20030;-51
2023/11/17 11:06:15;;;;;;;8.73;5.13;;;13.90;99.90;;;;;;4969054;28;20038;-52
2023/11/17 11:08:54;;;;;;;6.22;3.95;;;13.80;99.90;;;;;;4970318;28;20094;-53
2023/11/17 11:11:24;;;;;;;8.00;4.72;;;13.90;99.90;;;;;;4965883;28;20030;-52
2023/11/17 11:14:00;;;;;;;6.28;3.90;;;13.90;99.90;;;;;;4962957;28;20030;-52
2023/11/17 11:16:30;;;;;;;6.20;4.00;;;13.90;99.90;;;;;;4970171;28;20059;-52
2023/11/17 11:18:58;;;;;;;5.85;4.07;;;13.90;99.90;;;;;;4968682;28;20379;-52
2023/11/17 11:21:27;;;;;;;5.45;3.88;;;14.00;99.90;;;;;;4969519;28;20035;-51
2023/11/17 11:23:59;;;;;;;7.78;3.88;;;13.90;99.90;;;;;;4950454;28;20122;-51
2023/11/17 11:26:25;;;;;;;5.15;3.30;;;13.90;99.90;;;;;;4942136;29;20063;-52
2023/11/17 11:28:53;;;;;;;7.05;4.10;;;13.90;99.90;;;;;;4950653;29;20066;-52
2023/11/17 11:31:20;;;;;;;4.68;3.83;;;13.90;99.90;;;;;;4949813;28;20046;-52
2023/11/17 11:33:47;;;;;;;5.32;3.80;;;13.70;99.90;;;;;;4919661;29;20039;-51
2023/11/17 11:36:14;;;;;;;9.95;5.13;;;13.60;99.90;;;;;;4950695;28;20031;-52
2023/11/17 11:38:41;;;;;;;5.38;3.95;;;13.50;99.90;;;;;;4926599;29;20031;-51
2023/11/17 11:41:11;;;;;;;6.55;3.92;;;13.60;99.90;;;;;;4949985;29;20102;-51
2023/11/17 11:43:41;;;;;;;6.68;4.78;;;13.70;99.90;;;;;;4946564;28;20047;-51
2023/11/17 11:46:09;;;;;;;6.15;3.85;;;13.60;99.90;;;;;;4950073;29;20058;-52
2023/11/17 11:48:37;;;;;;;4.70;3.85;;;13.50;99.90;;;;;;4950027;28;20055;-51
2023/11/17 11:51:12;;;;;;;7.95;4.18;;;13.50;99.90;;;;;;4950040;28;20087;-51
2023/11/17 11:53:48;;;;;;;5.22;3.88;;;13.40;99.90;;;;;;4948333;28;20057;-51
2023/11/17 11:56:14;;;;;;;6.07;4.47;;;13.40;99.90;;;;;;4968134;28;20502;-52
2023/11/17 11:58:45;;;;;;;7.43;5.45;;;13.30;99.90;;;;;;4972157;28;20045;-52
2023/11/17 12:01:16;;;;;;;8.20;5.78;;;13.30;99.90;;;;;;4971905;28;20027;-52
2023/11/17 12:03:45;;;;;;;6.70;4.25;;;13.30;99.90;;;;;;4972073;28;20100;-52
2023/11/17 12:06:19;;;;;;;6.45;4.90;;;13.10;99.90;;;;;;4971998;28;20038;-51
2023/11/17 12:08:55;;;;;;;7.07;4.13;;;12.90;99.90;;;;;;4972147;28;20058;-52
2023/11/17 12:11:22;;;;;;;5.28;4.45;;;12.90;99.90;;;;;;4935939;28;20034;-52
2023/11/17 12:13:57;;;;;;;6.50;4.45;;;12.90;99.90;;;;;;4969587;28;20033;-52
2023/11/17 12:16:29;;;;;;;6.15;3.30;;;12.90;99.90;;;;;;4970386;28;20086;-51
2023/11/17 12:18:58;;;;;;;5.20;4.28;;;12.80;99.90;;;;;;4970694;28;20027;-51
2023/11/17 12:21:24;;;;;;;6.20;3.85;;;12.80;99.90;;;;;;4972092;28;20438;-51
2023/11/17 12:23:55;;;;;;;5.10;3.63;;;12.70;99.90;;;;;;4935936;28;20134;-51
2023/11/17 12:26:26;;;;;;;3.95;2.95;;;12.70;99.90;;;;;;4936236;28;20046;-51
2023/11/17 12:28:57;;;;;;;6.60;3.90;;;12.60;99.90;;;;;;4969924;28;20034;-52
2023/11/17 12:31:23;;;;;;;5.32;2.83;;;12.70;99.90;;;;;;4970983;28;20030;-51
2023/11/17 12:33:51;;;;;;;6.13;2.83;;;12.70;99.90;;;;;;4970216;28;20026;-51
2023/11/17 12:36:18;;;;;;;3.60;1.85;;;12.60;99.90;;;;;;4953547;28;20039;-51
2023/11/17 12:38:49;;;;;;;4.82;2.42;;;12.50;99.90;;;;;;4953050;28;20073;-51
2023/11/17 12:41:16;;;;;;;3.85;2.50;;;12.50;99.90;;;;;;4971885;28;20438;-51
2023/11/17 12:43:49;;;;;;;4.95;2.50;;;12.50;99.90;;;;;;4971617;28;20034;-51
2023/11/17 12:46:15;;;;;;;4.45;2.75;;;12.60;99.90;;;;;;4971934;28;20026;-51
2023/11/17 12:48:45;;;;;;;4.60;2.63;;;12.60;99.90;;;;;;4971152;28;20685;-51
2023/11/17 12:51:25;;;;;;;3.58;2.53;;;12.70;99.90;;;;;;4971602;28;20101;-51
2023/11/17 12:53:52;;;;;;;3.55;2.42;;;12.80;99.90;;;;;;4969715;28;20532;-52
2023/11/17 12:56:18;;;;;;;3.92;2.45;;;12.70;99.90;;;;;;4971597;28;20109;-52
2023/11/17 12:58:44;;;;;;;3.60;2.55;;;12.60;99.90;;;;;;4971460;28;20728;-51
2023/11/17 13:01:19;;;;;;;3.72;2.33;;;12.70;99.90;;;;;;4961372;28;20030;-51
2023/11/17 13:03:51;;;;;;;7.25;2.63;;;12.60;99.90;;;;;;4971502;28;20034;-51
2023/11/17 13:06:18;;;;;;;3.83;2.40;;;12.50;99.90;;;;;;4975566;28;20104;-51
2023/11/17 13:08:44;;;;;;;3.95;2.40;;;12.50;99.90;;;;;;4956699;28;20035;-51
2023/11/17 13:11:12;;;;;;;4.45;2.53;;;12.50;99.90;;;;;;4975386;28;20501;-51
2023/11/17 13:13:38;;;;;;;2.72;2.05;;;12.50;99.90;;;;;;4975571;28;20142;-51
2023/11/17 13:16:09;;;;;;;3.30;2.40;;;12.50;99.90;;;;;;4973453;28;20023;-51
2023/11/17 13:18:40;;;;;;;4.13;2.28;;;12.40;99.90;;;;;;4973261;28;20035;-51
2023/11/17 13:21:11;;;;;;;5.05;2.28;;;12.40;99.90;;;;;;4947594;28;20030;-51
2023/11/17 13:23:44;;;;;;;3.67;1.98;;;12.40;99.90;;;;;;4973548;28;20098;-51